sim
Sign-in with your pilot id or email,
or register
Callsign
Passwort

Schedule Details

Flight Number: OEO2146
Departure: Leipzig Halle Airport (EDDP) at 05:55
Arrival: Thessaloniki International Airport (LGTS) at 08:20

Weather Information
Getting current METAR information for EDDP 211750Z 04005KT CAVOK 20/08 Q1027 NOSIG
Getting current METAR information for LGTS 211750Z 16005KT CAVOK 29/13 Q1016 NOSIG

Schedule Frequency

Route Map